Main page
METAR-TAF:

Airports :

Bauru, São Paulo, Brazil

Bauru Airport

latitude: 22-19S, longitude: 049-04W, elevation: 590 m

Current weather observation

The report was made 38 minutes ago, at 06:00 UTC
Wind 2 kt from the West/Southwest
Temperature 27°C
Humidity 79%
Pressure 1016 hPa
Visibility 10 km or more
no clouds below 1500 m and no cumulonimbus

METAR: SBBU 100600Z 25002KT CAVOK 27/23 Q1016

Time: 04:38 (06:38 UTC)

Forecast

The report was made 8 hours and 23 minutes ago, at 22:15 UTC
Forecast valid from 10 at 00 UTC to 10 at 12 UTC
Wind 5 kt from the Northwest
Visibility 10 km or more
no clouds below 1500 m and no cumulonimbus

TAF: SBBU 092215Z 1000/1012 32005KT CAVOK TX30/1000Z TN23/1008Z RMK PDW

METAR-TAF

Weather observations and forecasts of more than 4000 airports (METAR and TAF reports).

The available stations are represented by yellow and red dots on the map.

Hover mouse over dot to see the name of the station.

Then click to see weather observations and forecasts.

To change the map : click on the green buttons with a black cross to zoom in, on the green button with a dash to zoom out, or on the green arrows for adjacent maps.


METAR-TAF: